KCVG/CVG METAR and TAF weather

Enter ICAO airport designator
Station Type Date Time Source
KCVG METAR 2019/10/20 18:52 UTC NOAA

KCVG 201852Z 01003KT 10SM SCT045 24/10 A2988 RMK AO2 SLP111 T02390100


Station Type Date Time Source
KCVG Decoded METAR 2019/10/20 18:52 UTC NOAA

CINCINNATI/NORTHERN KY INTERNATIONAL , KY, United States (KCVG) 39-03N 084-40W 269M
Oct 20, 2019 - 02:52 PM EDT / 2019.10.20 1852 UTC
Wind: from the N (010 degrees) at 3 MPH (3 KT):0
Visibility: 10 mile(s):0
Sky conditions: partly cloudy
Temperature: 75.0 F (23.9 C)
Dew Point: 50.0 F (10.0 C)
Relative Humidity: 41%
Pressure (altimeter): 29.88 in. Hg (1011 hPa)
ob: KCVG 201852Z 01003KT 10SM SCT045 24/10 A2988 RMK AO2 SLP111 T02390100
cycle: 19

Station Type Date Time Source
KCVG TAF 2019/10/20 18:51 UTC NOAA

TAF
AMD KCVG 201747Z 2018/2124 20004KT P6SM BKN250
FM211100 13007KT P6SM BKN090
FM211500 15011G21KT 5SM -SHRA BKN050
TEMPO 2115/2118 OVC025
FM211900 17013G28KT 5SM -SHRA OVC040

Example: see airport list